createdAt,value
2022-08-25T00:02:01.989Z,18.95
2022-08-25T00:04:30.352Z,18.90
2022-08-25T00:07:02.772Z,18.91
2022-08-25T00:09:31.497Z,18.93
2022-08-25T00:11:58.929Z,19.00
2022-08-25T00:14:29.227Z,18.96
2022-08-25T00:16:56.131Z,19.04
2022-08-25T00:19:26.961Z,19.11
2022-08-25T00:21:54.778Z,19.13
2022-08-25T00:24:22.500Z,19.04
2022-08-25T00:26:52.421Z,19.05
2022-08-25T00:29:19.432Z,19.02
2022-08-25T00:31:46.388Z,18.97
2022-08-25T00:34:17.689Z,19.02
2022-08-25T00:36:45.178Z,19.03
2022-08-25T00:39:11.841Z,19.08
2022-08-25T00:41:41.903Z,19.04
2022-08-25T00:44:17.488Z,18.99
2022-08-25T00:46:47.669Z,19.03
2022-08-25T00:49:17.949Z,18.97
2022-08-25T00:51:56.964Z,18.94
2022-08-25T00:54:34.973Z,18.81
2022-08-25T00:57:03.962Z,18.69
2022-08-25T00:59:32.514Z,18.51
2022-08-25T01:02:00.049Z,18.61
2022-08-25T01:04:27.445Z,18.56
2022-08-25T01:06:55.503Z,18.58
2022-08-25T01:09:22.250Z,18.50
2022-08-25T01:11:49.303Z,18.43
2022-08-25T01:14:18.939Z,18.34
2022-08-25T01:16:46.356Z,18.39
2022-08-25T01:19:17.708Z,18.48
2022-08-25T01:21:49.131Z,18.63
2022-08-25T01:24:41.088Z,18.67
2022-08-25T01:27:08.431Z,18.71
2022-08-25T01:29:36.163Z,18.70
2022-08-25T01:32:06.194Z,18.59
2022-08-25T01:34:36.743Z,18.64
2022-08-25T01:37:04.748Z,18.64
2022-08-25T01:39:34.023Z,18.58
2022-08-25T01:42:09.557Z,18.53
2022-08-25T01:44:39.122Z,18.47
2022-08-25T01:47:07.000Z,18.39
2022-08-25T01:49:34.050Z,18.43
2022-08-25T01:52:11.330Z,18.53
2022-08-25T01:54:38.295Z,18.59
2022-08-25T01:57:05.063Z,18.70
2022-08-25T01:59:31.684Z,18.69
2022-08-25T02:02:00.183Z,18.76
2022-08-25T02:04:32.097Z,18.82
2022-08-25T02:07:02.769Z,18.91
2022-08-25T02:09:29.689Z,18.96
2022-08-25T02:11:56.928Z,19.10
2022-08-25T02:14:24.196Z,19.20
2022-08-25T02:16:53.124Z,19.12
2022-08-25T02:19:22.165Z,19.22
2022-08-25T02:21:49.005Z,19.21
2022-08-25T02:24:16.025Z,19.12
2022-08-25T02:26:42.778Z,19.13
2022-08-25T02:29:10.463Z,19.11
2022-08-25T02:31:37.250Z,19.22
2022-08-25T02:34:04.696Z,19.13
2022-08-25T02:36:32.345Z,19.05
2022-08-25T02:38:59.799Z,18.90
2022-08-25T02:41:31.282Z,18.72
2022-08-25T02:44:00.071Z,18.66
2022-08-25T02:46:27.266Z,18.55
2022-08-25T02:48:54.042Z,18.43
2022-08-25T02:51:22.666Z,18.28
2022-08-25T02:53:49.871Z,18.15
2022-08-25T02:56:18.275Z,18.24
2022-08-25T02:58:46.019Z,18.15
2022-08-25T03:01:13.937Z,18.00
2022-08-25T03:03:42.187Z,17.88
2022-08-25T03:06:13.209Z,17.87
2022-08-25T03:08:41.727Z,17.88
2022-08-25T03:11:08.538Z,17.83
2022-08-25T03:13:35.620Z,17.87
2022-08-25T03:16:03.172Z,17.91
2022-08-25T03:18:30.768Z,17.93
2022-08-25T03:20:57.649Z,17.96
2022-08-25T03:23:24.791Z,17.99
2022-08-25T03:26:10.162Z,18.14
2022-08-25T03:28:36.885Z,18.22
2022-08-25T03:31:04.287Z,18.26
2022-08-25T03:33:31.675Z,18.42
2022-08-25T03:35:59.249Z,18.47
2022-08-25T03:38:27.365Z,18.36
2022-08-25T03:40:54.371Z,18.41
2022-08-25T03:43:21.475Z,18.38
2022-08-25T03:45:48.652Z,18.41
2022-08-25T03:48:16.484Z,18.37
2022-08-25T03:50:51.683Z,18.39
2022-08-25T03:53:20.339Z,18.36
2022-08-25T03:55:47.502Z,18.42
2022-08-25T03:58:14.412Z,18.39
2022-08-25T04:00:41.086Z,18.44
2022-08-25T04:03:07.796Z,18.50
2022-08-25T04:05:35.334Z,18.55
2022-08-25T04:08:02.313Z,18.63
2022-08-25T04:10:29.610Z,18.55
2022-08-25T04:12:57.271Z,18.54
2022-08-25T04:15:28.614Z,18.52
2022-08-25T04:17:59.088Z,18.56
2022-08-25T04:20:26.233Z,18.65
2022-08-25T04:22:53.190Z,18.69
2022-08-25T04:25:20.341Z,18.83
2022-08-25T04:27:46.959Z,18.87
2022-08-25T04:30:14.664Z,18.98
2022-08-25T04:32:41.293Z,19.01
2022-08-25T04:35:08.762Z,19.06
2022-08-25T04:37:35.375Z,19.13
2022-08-25T04:40:02.513Z,19.21
2022-08-25T04:42:29.189Z,19.21
2022-08-25T04:44:55.915Z,19.21
2022-08-25T04:47:22.833Z,19.26
2022-08-25T04:49:49.891Z,19.33
2022-08-25T04:52:16.544Z,19.49
2022-08-25T04:54:43.931Z,19.50
2022-08-25T04:57:10.858Z,19.60
2022-08-25T04:59:37.489Z,19.74
2022-08-25T05:02:05.654Z,19.94
2022-08-25T05:04:35.244Z,20.04
2022-08-25T05:07:02.400Z,19.91
2022-08-25T05:09:32.312Z,19.85
2022-08-25T05:12:00.256Z,19.77
2022-08-25T05:14:26.966Z,19.75
2022-08-25T05:16:55.090Z,19.68
2022-08-25T05:19:23.979Z,19.74
2022-08-25T05:21:51.583Z,19.87
2022-08-25T05:24:18.920Z,19.80
2022-08-25T05:26:45.968Z,19.77
2022-08-25T05:29:12.784Z,19.82
2022-08-25T05:31:43.108Z,19.73
2022-08-25T05:34:12.237Z,19.83
2022-08-25T05:36:43.208Z,19.88
2022-08-25T05:39:10.845Z,19.94
2022-08-25T05:41:37.930Z,19.90
2022-08-25T05:44:04.883Z,20.08
2022-08-25T05:46:31.800Z,20.17
2022-08-25T05:48:59.115Z,20.20
2022-08-25T05:51:26.680Z,20.24
2022-08-25T05:53:54.039Z,20.35
2022-08-25T05:56:20.896Z,20.42
2022-08-25T05:58:47.843Z,20.33
2022-08-25T06:01:43.452Z,20.46
2022-08-25T06:04:11.778Z,20.57
2022-08-25T06:06:39.379Z,20.44
2022-08-25T06:09:08.621Z,20.67
2022-08-25T06:11:36.373Z,20.81
2022-08-25T06:14:03.093Z,21.02
2022-08-25T06:16:29.843Z,21.09
2022-08-25T06:18:56.552Z,21.10
2022-08-25T06:21:23.259Z,21.42
2022-08-25T06:23:50.297Z,21.82
2022-08-25T06:26:21.459Z,22.17
2022-08-25T06:28:49.774Z,22.45
2022-08-25T06:31:17.261Z,22.77
2022-08-25T06:33:44.953Z,22.75
2022-08-25T06:36:11.835Z,22.75
2022-08-25T06:38:38.509Z,23.07
2022-08-25T06:41:06.816Z,23.20
2022-08-25T06:43:34.068Z,23.13
2022-08-25T06:46:19.101Z,23.13
2022-08-25T06:48:45.965Z,23.21
2022-08-25T06:51:16.842Z,23.23
2022-08-25T06:53:45.088Z,23.71
2022-08-25T06:56:12.331Z,23.82
2022-08-25T06:58:39.753Z,23.57
2022-08-25T07:01:20.516Z,23.50
2022-08-25T07:03:48.195Z,23.29
2022-08-25T07:06:16.553Z,23.61
2022-08-25T07:08:48.399Z,23.84
2022-08-25T07:11:17.533Z,24.13
2022-08-25T07:13:45.267Z,24.20
2022-08-25T07:16:12.610Z,24.45
2022-08-25T07:18:39.275Z,24.24
2022-08-25T07:21:09.144Z,24.24
2022-08-25T07:23:36.390Z,24.36
2022-08-25T07:26:35.968Z,24.45
2022-08-25T07:29:04.776Z,24.61
2022-08-25T07:31:33.013Z,24.40
2022-08-25T07:34:18.608Z,24.55
2022-08-25T07:36:45.293Z,24.27
2022-08-25T07:39:12.378Z,23.98
2022-08-25T07:41:41.700Z,24.03
2022-08-25T07:44:10.966Z,24.11
2022-08-25T07:46:38.565Z,23.93
2022-08-25T07:49:16.428Z,23.96
2022-08-25T07:52:04.662Z,23.79
2022-08-25T07:54:34.441Z,23.92
2022-08-25T07:57:03.128Z,23.99
2022-08-25T07:59:29.809Z,23.84
2022-08-25T08:01:57.477Z,23.99
2022-08-25T08:04:24.249Z,24.32
2022-08-25T08:06:50.866Z,24.56
2022-08-25T08:09:17.544Z,24.85
2022-08-25T08:11:53.897Z,25.00
2022-08-25T08:14:21.254Z,25.45
2022-08-25T08:16:47.986Z,26.11
2022-08-25T08:19:15.312Z,26.51
2022-08-25T08:21:42.451Z,26.80
2022-08-25T08:24:24.813Z,27.07
2022-08-25T08:26:59.067Z,27.27
2022-08-25T08:29:26.926Z,26.84
2022-08-25T08:31:53.596Z,26.41
2022-08-25T08:34:20.325Z,26.60
2022-08-25T08:36:52.120Z,26.85
2022-08-25T08:39:18.705Z,26.55
2022-08-25T08:42:18.274Z,26.38
2022-08-25T08:44:44.815Z,26.81
2022-08-25T08:47:33.734Z,26.80
2022-08-25T08:50:30.801Z,27.11
2022-08-25T08:53:06.855Z,27.04
2022-08-25T08:55:40.734Z,27.38
2022-08-25T08:58:15.524Z,27.19
2022-08-25T09:00:51.945Z,27.26
2022-08-25T09:03:41.670Z,27.42
2022-08-25T09:06:14.246Z,26.86
2022-08-25T09:08:44.965Z,26.72
2022-08-25T09:11:31.081Z,26.82
2022-08-25T09:14:30.651Z,26.88
2022-08-25T09:17:29.747Z,26.99
2022-08-25T09:20:18.622Z,27.13
2022-08-25T09:23:16.502Z,27.13
2022-08-25T09:25:52.941Z,27.10
2022-08-25T09:28:26.059Z,27.03
2022-08-25T09:31:05.036Z,27.05
2022-08-25T09:33:35.452Z,26.93
2022-08-25T09:36:05.977Z,26.99
2022-08-25T09:38:33.552Z,27.04
2022-08-25T09:41:01.485Z,27.15
2022-08-25T09:43:41.761Z,27.04
2022-08-25T09:46:08.285Z,26.94
2022-08-25T09:48:56.894Z,26.90
2022-08-25T09:51:24.141Z,26.64
2022-08-25T09:54:16.311Z,26.55
2022-08-25T09:57:01.910Z,26.10
2022-08-25T09:59:35.239Z,26.41
2022-08-25T10:02:25.215Z,26.25
2022-08-25T10:04:53.179Z,25.99
2022-08-25T10:07:35.619Z,25.99
2022-08-25T10:10:16.179Z,26.15
2022-08-25T10:12:51.024Z,26.14
2022-08-25T10:15:29.598Z,26.12
2022-08-25T10:18:16.980Z,26.44
2022-08-25T10:20:44.775Z,27.17
2022-08-25T10:23:19.137Z,27.95
2022-08-25T10:25:57.628Z,28.58
2022-08-25T10:28:32.685Z,28.82
2022-08-25T10:31:25.878Z,28.45
2022-08-25T10:34:03.642Z,27.92
2022-08-25T10:36:41.448Z,27.57
2022-08-25T10:39:36.230Z,27.76
2022-08-25T10:42:29.817Z,27.46
2022-08-25T10:45:33.943Z,27.45
2022-08-25T10:48:25.666Z,26.71
2022-08-25T10:50:52.546Z,26.62
2022-08-25T10:53:24.837Z,26.32
2022-08-25T10:56:01.251Z,26.37
2022-08-25T10:58:46.411Z,26.75
2022-08-25T11:01:42.980Z,26.98
2022-08-25T11:04:15.701Z,26.90
2022-08-25T11:07:03.307Z,27.07
2022-08-25T11:09:38.753Z,27.19
2022-08-25T11:12:27.503Z,26.68
2022-08-25T11:15:04.108Z,26.84
2022-08-25T11:17:53.820Z,26.63
2022-08-25T11:20:28.391Z,26.72
2022-08-25T11:23:05.347Z,26.35
2022-08-25T11:25:46.011Z,26.36
2022-08-25T11:28:27.575Z,26.71
2022-08-25T11:30:57.828Z,26.92
2022-08-25T11:33:26.647Z,27.29
2022-08-25T11:36:12.439Z,27.10
2022-08-25T11:38:48.032Z,27.48
2022-08-25T11:41:26.483Z,27.57
2022-08-25T11:44:08.117Z,27.43
2022-08-25T11:46:50.228Z,27.56
2022-08-25T11:49:26.273Z,27.65
2022-08-25T11:51:53.246Z,27.82
2022-08-25T11:54:26.444Z,27.51
2022-08-25T11:57:07.402Z,27.83
2022-08-25T11:59:52.363Z,27.98
2022-08-25T12:02:39.206Z,27.72
2022-08-25T12:05:12.918Z,27.39
2022-08-25T12:08:23.305Z,27.18
2022-08-25T12:11:07.261Z,26.92
2022-08-25T12:13:51.266Z,27.80
2022-08-25T12:16:56.459Z,28.57
2022-08-25T12:19:23.131Z,28.85
2022-08-25T12:21:50.890Z,29.01
2022-08-25T12:24:22.164Z,28.44
2022-08-25T12:26:54.968Z,27.80
2022-08-25T12:29:39.205Z,27.54
2022-08-25T12:32:25.402Z,27.47
2022-08-25T12:35:23.236Z,27.96
2022-08-25T12:38:02.583Z,27.97
2022-08-25T12:40:54.729Z,27.88
2022-08-25T12:43:33.302Z,27.77
2022-08-25T12:46:29.814Z,27.37
2022-08-25T12:49:05.907Z,27.22
2022-08-25T12:51:33.792Z,27.28
2022-08-25T12:54:19.136Z,27.58
2022-08-25T12:57:00.327Z,27.70
2022-08-25T12:59:31.417Z,27.58
2022-08-25T13:02:07.212Z,27.55
2022-08-25T13:04:36.648Z,27.52
2022-08-25T13:07:26.274Z,27.48
2022-08-25T13:10:02.068Z,27.30
2022-08-25T13:12:46.768Z,27.04
2022-08-25T13:15:25.070Z,27.04
2022-08-25T13:17:52.851Z,27.14
2022-08-25T13:20:30.430Z,27.06
2022-08-25T13:23:00.659Z,27.28
2022-08-25T13:25:32.105Z,27.37
2022-08-25T13:28:03.206Z,27.68
2022-08-25T13:30:39.395Z,27.72
2022-08-25T13:33:20.706Z,27.53
2022-08-25T13:36:12.199Z,27.26
2022-08-25T13:38:39.441Z,27.49
2022-08-25T13:41:09.570Z,27.77
2022-08-25T13:43:38.585Z,27.47
2022-08-25T13:46:06.349Z,27.74
2022-08-25T13:48:34.746Z,27.57
2022-08-25T13:51:19.729Z,27.54
2022-08-25T13:53:53.977Z,27.60
2022-08-25T13:56:39.972Z,27.54
2022-08-25T13:59:26.930Z,27.58
2022-08-25T14:01:55.229Z,27.65
2022-08-25T14:04:33.070Z,27.12
2022-08-25T14:07:20.962Z,26.92
2022-08-25T14:09:54.099Z,27.10
2022-08-25T14:12:45.485Z,27.16
2022-08-25T14:15:18.137Z,27.39
2022-08-25T14:17:48.957Z,27.35
2022-08-25T14:20:25.621Z,27.38
2022-08-25T14:22:57.906Z,27.54
2022-08-25T14:25:25.759Z,27.58
2022-08-25T14:28:13.646Z,27.18
2022-08-25T14:30:46.102Z,26.96
2022-08-25T14:33:14.360Z,26.93
2022-08-25T14:35:46.236Z,26.79
2022-08-25T14:38:14.962Z,26.66
2022-08-25T14:40:41.991Z,26.76
2022-08-25T14:43:09.625Z,26.88
2022-08-25T14:45:39.926Z,26.68
2022-08-25T14:48:37.041Z,26.48
2022-08-25T14:51:04.530Z,26.47
2022-08-25T14:53:32.098Z,26.36
2022-08-25T14:55:59.423Z,26.22
2022-08-25T14:58:28.002Z,26.48
2022-08-25T15:01:02.839Z,26.46
2022-08-25T15:03:38.583Z,26.61
2022-08-25T15:06:05.931Z,26.53
2022-08-25T15:08:51.344Z,26.77
2022-08-25T15:11:18.106Z,27.01
2022-08-25T15:13:49.464Z,26.90
2022-08-25T15:16:23.694Z,26.64
2022-08-25T15:19:01.587Z,26.28
2022-08-25T15:21:33.277Z,26.31
2022-08-25T15:24:00.519Z,26.31
2022-08-25T15:26:27.708Z,26.47
2022-08-25T15:28:54.392Z,26.38
2022-08-25T15:31:21.547Z,26.40
2022-08-25T15:33:48.324Z,26.06
2022-08-25T15:36:22.354Z,26.10
2022-08-25T15:38:51.310Z,26.24
2022-08-25T15:41:18.001Z,26.25
2022-08-25T15:43:44.645Z,26.32
2022-08-25T15:46:14.311Z,26.15
2022-08-25T15:48:41.230Z,26.32
2022-08-25T15:51:08.658Z,26.34
2022-08-25T15:53:36.389Z,26.50
2022-08-25T15:56:06.983Z,26.57
2022-08-25T15:58:35.393Z,26.56
2022-08-25T16:01:02.853Z,26.48
2022-08-25T16:03:31.439Z,26.53
2022-08-25T16:05:58.053Z,26.28
2022-08-25T16:08:24.706Z,26.24
2022-08-25T16:10:51.740Z,26.23
2022-08-25T16:13:18.670Z,26.09
2022-08-25T16:15:54.384Z,25.99
2022-08-25T16:18:23.140Z,25.93
2022-08-25T16:20:50.143Z,25.78
2022-08-25T16:23:18.753Z,25.66
2022-08-25T16:25:46.802Z,25.53
2022-08-25T16:28:16.514Z,25.50
2022-08-25T16:30:53.063Z,25.40
2022-08-25T16:33:21.267Z,25.32
2022-08-25T16:35:49.316Z,25.34
2022-08-25T16:38:16.099Z,25.25
2022-08-25T16:40:43.250Z,25.28
2022-08-25T16:43:10.500Z,25.27
2022-08-25T16:45:37.515Z,25.18
2022-08-25T16:48:05.889Z,25.14
2022-08-25T16:50:34.171Z,25.03
2022-08-25T16:53:23.879Z,24.98
2022-08-25T16:56:00.436Z,25.03
2022-08-25T16:58:27.039Z,24.86
2022-08-25T17:01:05.183Z,24.71
2022-08-25T17:03:34.517Z,24.56
2022-08-25T17:06:01.226Z,24.60
2022-08-25T17:08:31.042Z,24.58
2022-08-25T17:11:17.605Z,24.45
2022-08-25T17:13:49.787Z,24.45
2022-08-25T17:16:17.170Z,24.39
2022-08-25T17:18:47.871Z,24.35
2022-08-25T17:21:20.422Z,24.33
2022-08-25T17:23:51.323Z,24.33
2022-08-25T17:26:18.159Z,24.23
2022-08-25T17:28:44.946Z,24.16
2022-08-25T17:31:13.913Z,24.12
2022-08-25T17:33:41.260Z,24.07
2022-08-25T17:36:08.500Z,24.04
2022-08-25T17:38:36.521Z,24.02
2022-08-25T17:41:06.935Z,24.04
2022-08-25T17:43:37.381Z,24.06
2022-08-25T17:46:05.296Z,24.00
2022-08-25T17:48:33.093Z,23.99
2022-08-25T17:51:01.141Z,24.00
2022-08-25T17:53:28.303Z,23.98
2022-08-25T17:56:04.459Z,23.95
2022-08-25T17:58:33.108Z,23.92
2022-08-25T18:01:00.343Z,23.91
2022-08-25T18:03:28.115Z,23.86
2022-08-25T18:05:55.252Z,23.79
2022-08-25T18:08:22.382Z,23.77
2022-08-25T18:11:02.484Z,23.75
2022-08-25T18:13:29.470Z,23.68
2022-08-25T18:15:56.136Z,23.66
2022-08-25T18:18:24.177Z,23.66
2022-08-25T18:20:51.229Z,23.59
2022-08-25T18:23:19.808Z,23.54
2022-08-25T18:25:48.694Z,23.48
2022-08-25T18:28:15.976Z,23.43
2022-08-25T18:30:43.242Z,23.34
2022-08-25T18:33:10.575Z,23.25
2022-08-25T18:35:38.059Z,23.19
2022-08-25T18:38:24.532Z,23.00
2022-08-25T18:41:02.885Z,22.94
2022-08-25T18:43:31.287Z,22.83
2022-08-25T18:46:01.468Z,22.73
2022-08-25T18:48:28.724Z,22.74
2022-08-25T18:50:56.726Z,22.52
2022-08-25T18:53:30.339Z,22.54
2022-08-25T18:56:04.063Z,22.43
2022-08-25T18:58:30.671Z,22.39
2022-08-25T19:00:57.357Z,22.38
2022-08-25T19:03:24.246Z,22.19
2022-08-25T19:05:57.519Z,22.07
2022-08-25T19:08:25.168Z,22.18
2022-08-25T19:10:54.296Z,22.06
2022-08-25T19:13:22.657Z,21.99
2022-08-25T19:15:50.903Z,22.05
2022-08-25T19:18:25.878Z,22.01
2022-08-25T19:20:55.919Z,22.01
2022-08-25T19:23:22.621Z,22.03
2022-08-25T19:25:49.330Z,22.13
2022-08-25T19:28:16.322Z,21.98
2022-08-25T19:30:49.799Z,21.84
2022-08-25T19:33:34.403Z,21.74
2022-08-25T19:36:06.453Z,21.66
2022-08-25T19:38:37.625Z,21.60
2022-08-25T19:41:13.946Z,21.59
2022-08-25T19:43:55.692Z,21.57
2022-08-25T19:46:32.197Z,21.47
2022-08-25T19:49:07.961Z,21.57
2022-08-25T19:51:38.762Z,21.60
2022-08-25T19:54:08.997Z,21.56
2022-08-25T19:56:36.480Z,21.54
2022-08-25T19:59:03.862Z,21.53
2022-08-25T20:01:30.615Z,21.51
2022-08-25T20:03:57.332Z,21.41
2022-08-25T20:06:24.220Z,21.47
2022-08-25T20:08:58.926Z,21.33
2022-08-25T20:11:28.965Z,21.33
2022-08-25T20:13:59.272Z,21.37
2022-08-25T20:16:29.890Z,21.47
2022-08-25T20:18:56.587Z,21.37
2022-08-25T20:21:24.212Z,21.50
2022-08-25T20:24:09.488Z,21.51
2022-08-25T20:26:36.481Z,21.55
2022-08-25T20:29:05.052Z,21.58
2022-08-25T20:31:32.321Z,21.62
2022-08-25T20:34:00.951Z,21.73
2022-08-25T20:36:29.807Z,21.71
2022-08-25T20:38:56.507Z,21.61
2022-08-25T20:41:25.781Z,21.63
2022-08-25T20:43:52.453Z,21.60
2022-08-25T20:46:19.379Z,21.48
2022-08-25T20:48:46.084Z,21.23
2022-08-25T20:51:13.233Z,21.20
2022-08-25T20:53:42.502Z,21.16
2022-08-25T20:56:14.637Z,21.09
2022-08-25T20:58:42.158Z,21.10
2022-08-25T21:01:20.336Z,21.14
2022-08-25T21:03:50.354Z,21.20
2022-08-25T21:06:17.170Z,21.21
2022-08-25T21:08:46.663Z,21.20
2022-08-25T21:11:17.962Z,21.29
2022-08-25T21:13:45.888Z,21.21
2022-08-25T21:16:12.691Z,21.17
2022-08-25T21:18:44.196Z,21.03
2022-08-25T21:21:16.689Z,21.06
2022-08-25T21:23:46.969Z,21.14
2022-08-25T21:26:22.864Z,21.20
2022-08-25T21:28:49.745Z,21.21
2022-08-25T21:31:18.001Z,21.11
2022-08-25T21:33:48.159Z,21.21
2022-08-25T21:36:19.511Z,21.24
2022-08-25T21:38:47.999Z,20.88
2022-08-25T21:41:21.398Z,20.73
2022-08-25T21:43:49.481Z,20.64
2022-08-25T21:46:19.929Z,20.53
2022-08-25T21:48:49.094Z,20.45
2022-08-25T21:51:19.375Z,20.52
2022-08-25T21:53:46.939Z,20.58
2022-08-25T21:56:22.379Z,20.62
2022-08-25T21:58:52.840Z,20.69
2022-08-25T22:01:20.525Z,20.66
2022-08-25T22:03:49.741Z,20.72
2022-08-25T22:06:16.566Z,20.70
2022-08-25T22:08:46.289Z,20.73
2022-08-25T22:11:16.414Z,20.71
2022-08-25T22:13:46.765Z,20.65
2022-08-25T22:16:21.528Z,20.67
2022-08-25T22:18:48.660Z,20.53
2022-08-25T22:21:18.905Z,20.71
2022-08-25T22:23:45.939Z,20.64
2022-08-25T22:26:16.411Z,20.67
2022-08-25T22:28:48.774Z,20.49
2022-08-25T22:31:20.916Z,20.46
2022-08-25T22:33:48.591Z,20.44
2022-08-25T22:36:16.152Z,20.42
2022-08-25T22:38:44.223Z,20.38
2022-08-25T22:41:11.592Z,20.34
2022-08-25T22:43:52.907Z,20.26
2022-08-25T22:46:21.596Z,20.09
2022-08-25T22:48:50.298Z,20.12
2022-08-25T22:51:21.435Z,20.15
2022-08-25T22:53:49.224Z,20.00
2022-08-25T22:56:18.964Z,20.06
2022-08-25T22:58:51.768Z,20.11
2022-08-25T23:01:20.497Z,20.12
2022-08-25T23:03:47.680Z,20.19
2022-08-25T23:06:24.653Z,20.23
2022-08-25T23:08:53.830Z,20.17
2022-08-25T23:11:22.565Z,20.25
2022-08-25T23:13:50.187Z,20.19
2022-08-25T23:16:17.969Z,20.12
2022-08-25T23:18:46.828Z,20.11
2022-08-25T23:21:37.922Z,20.19
2022-08-25T23:24:10.819Z,20.23
2022-08-25T23:26:42.002Z,20.27
2022-08-25T23:29:18.700Z,20.19
2022-08-25T23:31:47.673Z,20.26
2022-08-25T23:34:15.844Z,20.20
2022-08-25T23:36:43.362Z,20.18
2022-08-25T23:39:11.285Z,20.20
2022-08-25T23:41:39.154Z,20.22
2022-08-25T23:44:09.170Z,20.15
2022-08-25T23:46:38.502Z,20.12
2022-08-25T23:49:08.236Z,20.18
2022-08-25T23:51:38.316Z,20.15
2022-08-25T23:54:09.652Z,20.16
2022-08-25T23:56:44.741Z,20.25
2022-08-25T23:59:18.243Z,20.25
